Terminal Aerodrome Forecast
Issued by NWS

Home | Current Version | Previous Version | Text Only | Print | Product List | Glossary On
Versions: 1 2 3 4 5 6 7 8 9 10 11 12 13 14 15 16 17 18 19 20 21 22 23
000
FTUS43 KDLH 201132
TAFHIB
TAF
KHIB 201132Z 2012/2112 35007KT 1/2SM SN FZFG VV009
     FM201500 34007KT 2SM -SN OVC015
     FM201700 34007KT 5SM -SN BKN018 OVC045
     FM202000 31008KT P6SM -SN BKN020
     FM210000 31008KT P6SM BKN040
     FM210600 28004KT P6SM SCT040=

USA.gov is the U.S. government's official web portal to all federal, state and local government web resources and services.